sensor_id;sensor_type;location;lat;lon;timestamp;P1;durP1;ratioP1;P2;durP2;ratioP2
12703;SDS011;6416;52.182;7.650;2023-05-16T00:00:02;1.67;;;1.57;;
12703;SDS011;6416;52.182;7.650;2023-05-16T00:02:27;1.53;;;1.33;;
12703;SDS011;6416;52.182;7.650;2023-05-16T00:04:53;1.27;;;1.17;;
12703;SDS011;6416;52.182;7.650;2023-05-16T00:07:18;1.00;;;1.00;;
12703;SDS011;6416;52.182;7.650;2023-05-16T00:09:44;1.17;;;1.07;;
12703;SDS011;6416;52.182;7.650;2023-05-16T00:12:09;1.00;;;1.00;;
12703;SDS011;6416;52.182;7.650;2023-05-16T00:14:34;1.10;;;1.00;;
12703;SDS011;6416;52.182;7.650;2023-05-16T00:17:00;0.83;;;0.83;;
12703;SDS011;6416;52.182;7.650;2023-05-16T00:19:25;1.17;;;1.00;;
12703;SDS011;6416;52.182;7.650;2023-05-16T00:21:51;0.90;;;0.90;;
12703;SDS011;6416;52.182;7.650;2023-05-16T00:24:16;0.60;;;0.60;;
12703;SDS011;6416;52.182;7.650;2023-05-16T00:26:42;0.70;;;0.70;;
12703;SDS011;6416;52.182;7.650;2023-05-16T00:29:07;2.17;;;1.20;;
12703;SDS011;6416;52.182;7.650;2023-05-16T00:31:33;1.40;;;1.10;;
12703;SDS011;6416;52.182;7.650;2023-05-16T00:33:58;2.20;;;1.20;;
12703;SDS011;6416;52.182;7.650;2023-05-16T00:36:24;1.43;;;1.13;;
12703;SDS011;6416;52.182;7.650;2023-05-16T00:38:49;2.00;;;1.30;;
12703;SDS011;6416;52.182;7.650;2023-05-16T00:41:15;2.57;;;1.37;;
12703;SDS011;6416;52.182;7.650;2023-05-16T00:43:41;2.70;;;1.37;;
12703;SDS011;6416;52.182;7.650;2023-05-16T00:46:07;1.83;;;1.13;;
12703;SDS011;6416;52.182;7.650;2023-05-16T00:48:32;2.33;;;1.20;;
12703;SDS011;6416;52.182;7.650;2023-05-16T00:50:58;4.53;;;1.60;;
12703;SDS011;6416;52.182;7.650;2023-05-16T00:53:24;2.77;;;1.23;;
12703;SDS011;6416;52.182;7.650;2023-05-16T00:55:50;6.70;;;2.03;;
12703;SDS011;6416;52.182;7.650;2023-05-16T00:58:16;3.67;;;1.50;;
12703;SDS011;6416;52.182;7.650;2023-05-16T01:00:43;2.97;;;1.70;;
12703;SDS011;6416;52.182;7.650;2023-05-16T01:03:09;2.77;;;1.47;;
12703;SDS011;6416;52.182;7.650;2023-05-16T01:05:36;5.80;;;1.50;;
12703;SDS011;6416;52.182;7.650;2023-05-16T01:08:01;4.13;;;1.23;;
12703;SDS011;6416;52.182;7.650;2023-05-16T01:10:29;3.40;;;1.60;;
12703;SDS011;6416;52.182;7.650;2023-05-16T01:13:08;3.20;;;1.60;;
12703;SDS011;6416;52.182;7.650;2023-05-16T01:16:08;2.93;;;1.50;;
12703;SDS011;6416;52.182;7.650;2023-05-16T01:18:41;4.87;;;1.60;;
12703;SDS011;6416;52.182;7.650;2023-05-16T01:24:29;5.37;;;1.90;;
12703;SDS011;6416;52.182;7.650;2023-05-16T01:26:58;6.03;;;2.40;;
12703;SDS011;6416;52.182;7.650;2023-05-16T01:29:24;4.27;;;1.70;;
12703;SDS011;6416;52.182;7.650;2023-05-16T01:31:50;3.20;;;1.60;;
12703;SDS011;6416;52.182;7.650;2023-05-16T01:34:15;6.33;;;2.20;;
12703;SDS011;6416;52.182;7.650;2023-05-16T01:36:48;6.03;;;1.87;;
12703;SDS011;6416;52.182;7.650;2023-05-16T01:42:26;3.43;;;1.57;;
12703;SDS011;6416;52.182;7.650;2023-05-16T01:44:59;5.00;;;2.10;;
12703;SDS011;6416;52.182;7.650;2023-05-16T01:47:46;2.80;;;1.57;;
12703;SDS011;6416;52.182;7.650;2023-05-16T01:50:23;3.20;;;1.77;;
12703;SDS011;6416;52.182;7.650;2023-05-16T01:52:55;5.47;;;2.20;;
12703;SDS011;6416;52.182;7.650;2023-05-16T01:58:29;4.80;;;1.73;;
12703;SDS011;6416;52.182;7.650;2023-05-16T02:01:03;5.63;;;2.00;;
12703;SDS011;6416;52.182;7.650;2023-05-16T02:03:30;3.80;;;1.90;;
12703;SDS011;6416;52.182;7.650;2023-05-16T02:05:56;2.70;;;1.50;;
12703;SDS011;6416;52.182;7.650;2023-05-16T02:08:22;3.93;;;1.60;;
12703;SDS011;6416;52.182;7.650;2023-05-16T02:10:48;5.77;;;2.10;;
12703;SDS011;6416;52.182;7.650;2023-05-16T02:13:13;3.73;;;1.70;;
12703;SDS011;6416;52.182;7.650;2023-05-16T02:15:39;4.30;;;1.93;;
12703;SDS011;6416;52.182;7.650;2023-05-16T02:18:04;5.50;;;1.87;;
12703;SDS011;6416;52.182;7.650;2023-05-16T02:20:30;7.27;;;1.77;;
12703;SDS011;6416;52.182;7.650;2023-05-16T02:22:55;4.10;;;2.03;;
12703;SDS011;6416;52.182;7.650;2023-05-16T02:25:21;7.37;;;2.23;;
12703;SDS011;6416;52.182;7.650;2023-05-16T02:27:46;3.87;;;1.90;;
12703;SDS011;6416;52.182;7.650;2023-05-16T02:30:12;5.90;;;2.17;;
12703;SDS011;6416;52.182;7.650;2023-05-16T02:32:38;6.40;;;2.03;;
12703;SDS011;6416;52.182;7.650;2023-05-16T02:35:04;5.97;;;2.10;;
12703;SDS011;6416;52.182;7.650;2023-05-16T02:37:29;8.60;;;2.37;;
12703;SDS011;6416;52.182;7.650;2023-05-16T02:39:55;5.37;;;2.20;;
12703;SDS011;6416;52.182;7.650;2023-05-16T02:42:20;6.53;;;2.17;;
12703;SDS011;6416;52.182;7.650;2023-05-16T02:44:46;5.37;;;2.00;;
12703;SDS011;6416;52.182;7.650;2023-05-16T02:47:11;8.30;;;1.90;;
12703;SDS011;6416;52.182;7.650;2023-05-16T02:49:37;5.80;;;1.70;;
12703;SDS011;6416;52.182;7.650;2023-05-16T02:52:02;6.93;;;2.33;;
12703;SDS011;6416;52.182;7.650;2023-05-16T02:54:28;5.53;;;2.40;;
12703;SDS011;6416;52.182;7.650;2023-05-16T02:56:53;7.37;;;2.20;;
12703;SDS011;6416;52.182;7.650;2023-05-16T02:59:19;6.20;;;1.87;;
12703;SDS011;6416;52.182;7.650;2023-05-16T03:01:44;6.63;;;2.70;;
12703;SDS011;6416;52.182;7.650;2023-05-16T03:04:10;4.90;;;1.87;;
12703;SDS011;6416;52.182;7.650;2023-05-16T03:06:35;8.73;;;2.47;;
12703;SDS011;6416;52.182;7.650;2023-05-16T03:09:01;5.50;;;1.90;;
12703;SDS011;6416;52.182;7.650;2023-05-16T03:11:26;6.07;;;2.23;;
12703;SDS011;6416;52.182;7.650;2023-05-16T03:13:52;5.37;;;2.17;;
12703;SDS011;6416;52.182;7.650;2023-05-16T03:16:17;7.63;;;2.20;;
12703;SDS011;6416;52.182;7.650;2023-05-16T03:18:43;4.27;;;2.03;;
12703;SDS011;6416;52.182;7.650;2023-05-16T03:21:08;7.13;;;2.17;;
12703;SDS011;6416;52.182;7.650;2023-05-16T03:23:33;6.43;;;2.30;;
12703;SDS011;6416;52.182;7.650;2023-05-16T03:25:59;5.57;;;2.17;;
12703;SDS011;6416;52.182;7.650;2023-05-16T03:28:25;4.40;;;2.10;;
12703;SDS011;6416;52.182;7.650;2023-05-16T03:30:51;6.03;;;2.00;;
12703;SDS011;6416;52.182;7.650;2023-05-16T03:33:16;5.67;;;1.90;;
12703;SDS011;6416;52.182;7.650;2023-05-16T03:35:42;6.50;;;2.13;;
12703;SDS011;6416;52.182;7.650;2023-05-16T03:38:07;5.90;;;1.90;;
12703;SDS011;6416;52.182;7.650;2023-05-16T03:40:33;8.90;;;2.57;;
12703;SDS011;6416;52.182;7.650;2023-05-16T03:42:59;5.77;;;2.10;;
12703;SDS011;6416;52.182;7.650;2023-05-16T03:45:24;4.20;;;1.83;;
12703;SDS011;6416;52.182;7.650;2023-05-16T03:47:50;6.63;;;1.93;;
12703;SDS011;6416;52.182;7.650;2023-05-16T03:50:15;7.77;;;2.10;;
12703;SDS011;6416;52.182;7.650;2023-05-16T03:52:41;6.77;;;2.30;;
12703;SDS011;6416;52.182;7.650;2023-05-16T03:55:07;6.27;;;2.30;;
12703;SDS011;6416;52.182;7.650;2023-05-16T03:57:32;6.97;;;2.67;;
12703;SDS011;6416;52.182;7.650;2023-05-16T03:59:58;7.30;;;2.43;;
12703;SDS011;6416;52.182;7.650;2023-05-16T04:02:24;6.57;;;2.10;;
12703;SDS011;6416;52.182;7.650;2023-05-16T04:04:49;7.90;;;2.03;;
12703;SDS011;6416;52.182;7.650;2023-05-16T04:07:15;3.87;;;1.93;;
12703;SDS011;6416;52.182;7.650;2023-05-16T04:09:40;5.70;;;2.03;;
12703;SDS011;6416;52.182;7.650;2023-05-16T04:12:06;6.50;;;2.10;;
12703;SDS011;6416;52.182;7.650;2023-05-16T04:14:32;4.67;;;1.83;;
12703;SDS011;6416;52.182;7.650;2023-05-16T04:16:58;7.63;;;2.17;;
12703;SDS011;6416;52.182;7.650;2023-05-16T04:19:24;4.53;;;2.23;;
12703;SDS011;6416;52.182;7.650;2023-05-16T04:21:49;5.00;;;1.83;;
12703;SDS011;6416;52.182;7.650;2023-05-16T04:24:15;7.53;;;2.53;;
12703;SDS011;6416;52.182;7.650;2023-05-16T04:26:43;10.13;;;2.50;;
12703;SDS011;6416;52.182;7.650;2023-05-16T04:29:09;6.07;;;1.87;;
12703;SDS011;6416;52.182;7.650;2023-05-16T04:31:34;7.60;;;2.20;;
12703;SDS011;6416;52.182;7.650;2023-05-16T04:34:00;6.07;;;1.90;;
12703;SDS011;6416;52.182;7.650;2023-05-16T04:36:25;5.43;;;2.00;;
12703;SDS011;6416;52.182;7.650;2023-05-16T04:38:51;5.03;;;1.83;;
12703;SDS011;6416;52.182;7.650;2023-05-16T04:41:16;4.87;;;2.13;;
12703;SDS011;6416;52.182;7.650;2023-05-16T04:43:42;5.90;;;2.40;;
12703;SDS011;6416;52.182;7.650;2023-05-16T04:46:08;7.30;;;2.20;;
12703;SDS011;6416;52.182;7.650;2023-05-16T04:48:33;6.53;;;2.00;;
12703;SDS011;6416;52.182;7.650;2023-05-16T04:50:59;7.87;;;2.20;;
12703;SDS011;6416;52.182;7.650;2023-05-16T04:53:25;5.47;;;1.80;;
12703;SDS011;6416;52.182;7.650;2023-05-16T04:55:50;4.90;;;1.87;;
12703;SDS011;6416;52.182;7.650;2023-05-16T04:58:16;4.07;;;1.80;;
12703;SDS011;6416;52.182;7.650;2023-05-16T05:00:41;5.67;;;2.20;;
12703;SDS011;6416;52.182;7.650;2023-05-16T05:03:07;9.17;;;2.10;;
12703;SDS011;6416;52.182;7.650;2023-05-16T05:05:32;5.27;;;1.90;;
12703;SDS011;6416;52.182;7.650;2023-05-16T05:07:58;5.87;;;1.70;;
12703;SDS011;6416;52.182;7.650;2023-05-16T05:10:23;7.23;;;2.17;;
12703;SDS011;6416;52.182;7.650;2023-05-16T05:12:49;4.30;;;1.80;;
12703;SDS011;6416;52.182;7.650;2023-05-16T05:15:14;4.23;;;1.73;;
12703;SDS011;6416;52.182;7.650;2023-05-16T05:17:40;4.67;;;1.73;;
12703;SDS011;6416;52.182;7.650;2023-05-16T05:20:05;4.10;;;1.77;;
12703;SDS011;6416;52.182;7.650;2023-05-16T05:22:31;6.13;;;2.17;;
12703;SDS011;6416;52.182;7.650;2023-05-16T05:24:57;5.40;;;1.70;;
12703;SDS011;6416;52.182;7.650;2023-05-16T05:27:22;5.00;;;1.50;;
12703;SDS011;6416;52.182;7.650;2023-05-16T05:29:48;4.77;;;1.93;;
12703;SDS011;6416;52.182;7.650;2023-05-16T05:32:13;6.77;;;2.43;;
12703;SDS011;6416;52.182;7.650;2023-05-16T05:34:39;6.90;;;1.73;;
12703;SDS011;6416;52.182;7.650;2023-05-16T05:37:04;5.13;;;1.92;;
12703;SDS011;6416;52.182;7.650;2023-05-16T05:39:30;6.22;;;1.90;;
12703;SDS011;6416;52.182;7.650;2023-05-16T05:41:55;5.57;;;1.52;;
12703;SDS011;6416;52.182;7.650;2023-05-16T05:44:20;4.55;;;1.58;;
12703;SDS011;6416;52.182;7.650;2023-05-16T05:46:46;3.75;;;1.73;;
12703;SDS011;6416;52.182;7.650;2023-05-16T05:49:11;8.37;;;2.40;;
12703;SDS011;6416;52.182;7.650;2023-05-16T05:51:37;5.72;;;2.53;;
12703;SDS011;6416;52.182;7.650;2023-05-16T05:54:03;3.65;;;1.70;;
12703;SDS011;6416;52.182;7.650;2023-05-16T05:56:28;7.88;;;2.25;;
12703;SDS011;6416;52.182;7.650;2023-05-16T05:58:53;4.07;;;1.73;;
12703;SDS011;6416;52.182;7.650;2023-05-16T06:01:19;4.25;;;1.92;;
12703;SDS011;6416;52.182;7.650;2023-05-16T06:03:45;8.32;;;1.98;;
12703;SDS011;6416;52.182;7.650;2023-05-16T06:06:11;5.90;;;2.38;;
12703;SDS011;6416;52.182;7.650;2023-05-16T06:08:36;4.53;;;1.70;;
12703;SDS011;6416;52.182;7.650;2023-05-16T06:11:02;6.05;;;1.90;;
12703;SDS011;6416;52.182;7.650;2023-05-16T06:13:27;4.22;;;1.50;;
12703;SDS011;6416;52.182;7.650;2023-05-16T06:15:53;4.38;;;2.03;;
12703;SDS011;6416;52.182;7.650;2023-05-16T06:18:19;5.10;;;1.83;;
12703;SDS011;6416;52.182;7.650;2023-05-16T06:20:45;4.97;;;1.92;;
12703;SDS011;6416;52.182;7.650;2023-05-16T06:23:10;4.18;;;1.75;;
12703;SDS011;6416;52.182;7.650;2023-05-16T06:25:36;4.80;;;1.70;;
12703;SDS011;6416;52.182;7.650;2023-05-16T06:28:02;6.32;;;2.17;;
12703;SDS011;6416;52.182;7.650;2023-05-16T06:30:27;4.22;;;1.80;;
12703;SDS011;6416;52.182;7.650;2023-05-16T06:32:53;6.63;;;1.90;;
12703;SDS011;6416;52.182;7.650;2023-05-16T06:35:18;4.82;;;1.80;;
12703;SDS011;6416;52.182;7.650;2023-05-16T06:37:44;6.05;;;1.92;;
12703;SDS011;6416;52.182;7.650;2023-05-16T06:40:10;8.27;;;1.98;;
12703;SDS011;6416;52.182;7.650;2023-05-16T06:42:35;3.50;;;1.52;;
12703;SDS011;6416;52.182;7.650;2023-05-16T06:45:01;3.15;;;1.50;;
12703;SDS011;6416;52.182;7.650;2023-05-16T06:47:26;3.83;;;1.77;;
12703;SDS011;6416;52.182;7.650;2023-05-16T06:49:52;4.15;;;1.42;;
12703;SDS011;6416;52.182;7.650;2023-05-16T06:52:17;3.22;;;1.48;;
12703;SDS011;6416;52.182;7.650;2023-05-16T06:54:43;3.95;;;1.60;;
12703;SDS011;6416;52.182;7.650;2023-05-16T06:57:08;5.53;;;1.67;;
12703;SDS011;6416;52.182;7.650;2023-05-16T06:59:34;4.55;;;1.70;;
12703;SDS011;6416;52.182;7.650;2023-05-16T07:01:59;3.08;;;1.55;;
12703;SDS011;6416;52.182;7.650;2023-05-16T07:04:25;3.33;;;1.42;;
12703;SDS011;6416;52.182;7.650;2023-05-16T07:06:51;3.47;;;1.63;;
12703;SDS011;6416;52.182;7.650;2023-05-16T07:09:16;3.92;;;1.60;;
12703;SDS011;6416;52.182;7.650;2023-05-16T07:11:42;2.47;;;1.50;;
12703;SDS011;6416;52.182;7.650;2023-05-16T07:14:08;6.05;;;1.75;;
12703;SDS011;6416;52.182;7.650;2023-05-16T07:16:33;4.15;;;1.70;;
12703;SDS011;6416;52.182;7.650;2023-05-16T07:18:59;5.78;;;1.52;;
12703;SDS011;6416;52.182;7.650;2023-05-16T07:21:24;4.10;;;1.60;;
12703;SDS011;6416;52.182;7.650;2023-05-16T07:23:50;4.57;;;1.67;;
12703;SDS011;6416;52.182;7.650;2023-05-16T07:26:15;3.65;;;1.55;;
12703;SDS011;6416;52.182;7.650;2023-05-16T07:28:41;3.95;;;1.23;;
12703;SDS011;6416;52.182;7.650;2023-05-16T07:31:06;6.95;;;1.67;;
12703;SDS011;6416;52.182;7.650;2023-05-16T07:33:32;3.58;;;1.52;;
12703;SDS011;6416;52.182;7.650;2023-05-16T07:35:57;5.30;;;1.38;;
12703;SDS011;6416;52.182;7.650;2023-05-16T07:38:23;3.47;;;1.25;;
12703;SDS011;6416;52.182;7.650;2023-05-16T07:40:48;2.60;;;1.20;;
12703;SDS011;6416;52.182;7.650;2023-05-16T07:43:14;2.05;;;1.30;;
12703;SDS011;6416;52.182;7.650;2023-05-16T07:45:39;2.92;;;1.40;;
12703;SDS011;6416;52.182;7.650;2023-05-16T07:48:05;2.88;;;1.52;;
12703;SDS011;6416;52.182;7.650;2023-05-16T07:50:32;4.03;;;1.60;;
12703;SDS011;6416;52.182;7.650;2023-05-16T07:52:57;4.97;;;1.30;;
12703;SDS011;6416;52.182;7.650;2023-05-16T07:55:23;3.90;;;1.40;;
12703;SDS011;6416;52.182;7.650;2023-05-16T07:57:48;2.35;;;1.20;;
12703;SDS011;6416;52.182;7.650;2023-05-16T08:00:15;3.60;;;1.40;;
12703;SDS011;6416;52.182;7.650;2023-05-16T08:02:41;3.40;;;1.50;;
12703;SDS011;6416;52.182;7.650;2023-05-16T08:05:06;4.75;;;1.80;;
12703;SDS011;6416;52.182;7.650;2023-05-16T08:07:32;3.22;;;1.30;;
12703;SDS011;6416;52.182;7.650;2023-05-16T08:09:58;7.03;;;1.38;;
12703;SDS011;6416;52.182;7.650;2023-05-16T08:12:23;2.55;;;1.30;;
12703;SDS011;6416;52.182;7.650;2023-05-16T08:14:49;2.28;;;1.15;;
12703;SDS011;6416;52.182;7.650;2023-05-16T08:17:14;3.58;;;1.00;;
12703;SDS011;6416;52.182;7.650;2023-05-16T08:19:40;3.97;;;1.40;;
12703;SDS011;6416;52.182;7.650;2023-05-16T08:24:33;3.30;;;1.30;;
12703;SDS011;6416;52.182;7.650;2023-05-16T08:26:59;2.75;;;1.50;;
12703;SDS011;6416;52.182;7.650;2023-05-16T08:29:25;2.83;;;1.17;;
12703;SDS011;6416;52.182;7.650;2023-05-16T08:31:51;3.58;;;1.15;;
12703;SDS011;6416;52.182;7.650;2023-05-16T08:34:16;2.60;;;1.00;;
12703;SDS011;6416;52.182;7.650;2023-05-16T08:36:42;2.50;;;1.23;;
12703;SDS011;6416;52.182;7.650;2023-05-16T08:39:07;3.10;;;1.20;;
12703;SDS011;6416;52.182;7.650;2023-05-16T08:41:33;1.83;;;0.80;;
12703;SDS011;6416;52.182;7.650;2023-05-16T08:43:58;4.20;;;1.10;;
12703;SDS011;6416;52.182;7.650;2023-05-16T08:46:24;2.60;;;1.10;;
12703;SDS011;6416;52.182;7.650;2023-05-16T08:48:52;1.85;;;0.90;;
12703;SDS011;6416;52.182;7.650;2023-05-16T08:51:22;2.45;;;1.00;;
12703;SDS011;6416;52.182;7.650;2023-05-16T08:53:56;4.15;;;1.10;;
12703;SDS011;6416;52.182;7.650;2023-05-16T08:56:26;3.50;;;1.00;;
12703;SDS011;6416;52.182;7.650;2023-05-16T08:58:52;3.63;;;1.10;;
12703;SDS011;6416;52.182;7.650;2023-05-16T09:01:18;2.15;;;0.80;;
12703;SDS011;6416;52.182;7.650;2023-05-16T09:03:44;2.53;;;1.20;;
12703;SDS011;6416;52.182;7.650;2023-05-16T09:06:09;2.30;;;1.25;;
12703;SDS011;6416;52.182;7.650;2023-05-16T09:08:35;2.00;;;0.73;;
12703;SDS011;6416;52.182;7.650;2023-05-16T09:11:01;4.47;;;0.93;;
12703;SDS011;6416;52.182;7.650;2023-05-16T09:13:27;2.50;;;1.30;;
12703;SDS011;6416;52.182;7.650;2023-05-16T09:16:09;1.70;;;0.80;;
12703;SDS011;6416;52.182;7.650;2023-05-16T09:18:36;2.40;;;1.10;;
12703;SDS011;6416;52.182;7.650;2023-05-16T09:21:03;3.53;;;1.40;;
12703;SDS011;6416;52.182;7.650;2023-05-16T09:23:29;1.63;;;0.68;;
12703;SDS011;6416;52.182;7.650;2023-05-16T09:25:56;3.72;;;1.05;;
12703;SDS011;6416;52.182;7.650;2023-05-16T09:28:22;3.75;;;1.20;;
12703;SDS011;6416;52.182;7.650;2023-05-16T09:30:50;3.08;;;1.00;;
12703;SDS011;6416;52.182;7.650;2023-05-16T09:33:17;3.65;;;0.90;;
12703;SDS011;6416;52.182;7.650;2023-05-16T09:35:42;2.85;;;1.10;;
12703;SDS011;6416;52.182;7.650;2023-05-16T09:38:14;1.42;;;0.95;;
12703;SDS011;6416;52.182;7.650;2023-05-16T09:40:41;2.15;;;0.95;;
12703;SDS011;6416;52.182;7.650;2023-05-16T09:43:07;1.15;;;0.73;;
12703;SDS011;6416;52.182;7.650;2023-05-16T09:45:33;2.25;;;1.02;;
12703;SDS011;6416;52.182;7.650;2023-05-16T09:48:00;2.47;;;1.00;;
12703;SDS011;6416;52.182;7.650;2023-05-16T09:50:34;2.60;;;1.10;;
12703;SDS011;6416;52.182;7.650;2023-05-16T09:53:01;2.05;;;1.08;;
12703;SDS011;6416;52.182;7.650;2023-05-16T09:55:27;2.95;;;1.00;;
12703;SDS011;6416;52.182;7.650;2023-05-16T09:57:53;2.42;;;0.98;;
12703;SDS011;6416;52.182;7.650;2023-05-16T10:00:19;1.60;;;0.70;;
12703;SDS011;6416;52.182;7.650;2023-05-16T10:02:45;1.00;;;0.80;;
12703;SDS011;6416;52.182;7.650;2023-05-16T10:05:13;1.25;;;0.63;;
12703;SDS011;6416;52.182;7.650;2023-05-16T10:07:39;1.75;;;0.93;;
12703;SDS011;6416;52.182;7.650;2023-05-16T10:10:05;1.27;;;0.65;;
12703;SDS011;6416;52.182;7.650;2023-05-16T10:12:32;4.20;;;0.80;;
12703;SDS011;6416;52.182;7.650;2023-05-16T10:14:59;1.00;;;0.68;;
12703;SDS011;6416;52.182;7.650;2023-05-16T10:17:26;2.72;;;1.27;;
12703;SDS011;6416;52.182;7.650;2023-05-16T10:19:54;1.17;;;0.65;;
12703;SDS011;6416;52.182;7.650;2023-05-16T10:22:19;1.48;;;0.70;;
12703;SDS011;6416;52.182;7.650;2023-05-16T10:24:51;0.68;;;0.38;;
12703;SDS011;6416;52.182;7.650;2023-05-16T10:27:22;2.78;;;0.65;;
12703;SDS011;6416;52.182;7.650;2023-05-16T10:29:49;1.73;;;0.70;;
12703;SDS011;6416;52.182;7.650;2023-05-16T10:32:16;1.52;;;0.50;;
12703;SDS011;6416;52.182;7.650;2023-05-16T10:34:42;1.30;;;0.60;;
12703;SDS011;6416;52.182;7.650;2023-05-16T10:37:09;3.13;;;0.68;;
12703;SDS011;6416;52.182;7.650;2023-05-16T10:39:35;1.25;;;0.57;;
12703;SDS011;6416;52.182;7.650;2023-05-16T10:42:02;2.33;;;0.77;;
12703;SDS011;6416;52.182;7.650;2023-05-16T10:44:30;8.07;;;0.88;;
12703;SDS011;6416;52.182;7.650;2023-05-16T10:46:57;1.52;;;0.57;;
12703;SDS011;6416;52.182;7.650;2023-05-16T10:49:24;1.33;;;0.80;;
12703;SDS011;6416;52.182;7.650;2023-05-16T10:54:33;0.75;;;0.50;;
12703;SDS011;6416;52.182;7.650;2023-05-16T10:57:04;1.02;;;0.70;;
12703;SDS011;6416;52.182;7.650;2023-05-16T10:59:41;1.75;;;0.70;;
12703;SDS011;6416;52.182;7.650;2023-05-16T11:04:54;2.33;;;0.95;;
12703;SDS011;6416;52.182;7.650;2023-05-16T11:07:21;2.08;;;1.00;;
12703;SDS011;6416;52.182;7.650;2023-05-16T11:12:36;1.65;;;0.80;;
12703;SDS011;6416;52.182;7.650;2023-05-16T11:15:16;1.83;;;1.00;;
12703;SDS011;6416;52.182;7.650;2023-05-16T11:17:47;2.10;;;0.70;;
12703;SDS011;6416;52.182;7.650;2023-05-16T11:20:25;2.80;;;1.00;;
12703;SDS011;6416;52.182;7.650;2023-05-16T11:23:16;3.28;;;1.27;;
12703;SDS011;6416;52.182;7.650;2023-05-16T11:25:43;2.83;;;0.88;;
12703;SDS011;6416;52.182;7.650;2023-05-16T11:28:10;2.00;;;0.90;;
12703;SDS011;6416;52.182;7.650;2023-05-16T11:30:40;2.90;;;0.98;;
12703;SDS011;6416;52.182;7.650;2023-05-16T11:33:16;2.30;;;0.95;;
12703;SDS011;6416;52.182;7.650;2023-05-16T11:35:42;1.50;;;0.68;;
12703;SDS011;6416;52.182;7.650;2023-05-16T11:38:12;1.92;;;0.88;;
12703;SDS011;6416;52.182;7.650;2023-05-16T11:40:41;2.05;;;1.00;;
12703;SDS011;6416;52.182;7.650;2023-05-16T11:43:07;2.13;;;0.98;;
12703;SDS011;6416;52.182;7.650;2023-05-16T11:45:32;1.02;;;0.60;;
12703;SDS011;6416;52.182;7.650;2023-05-16T11:48:00;1.52;;;0.70;;
12703;SDS011;6416;52.182;7.650;2023-05-16T11:50:27;2.60;;;0.80;;
12703;SDS011;6416;52.182;7.650;2023-05-16T11:52:53;2.50;;;1.05;;
12703;SDS011;6416;52.182;7.650;2023-05-16T11:55:19;3.58;;;1.15;;
12703;SDS011;6416;52.182;7.650;2023-05-16T11:57:46;3.40;;;1.02;;
12703;SDS011;6416;52.182;7.650;2023-05-16T12:00:17;2.15;;;0.73;;
12703;SDS011;6416;52.182;7.650;2023-05-16T12:02:45;2.53;;;1.00;;
12703;SDS011;6416;52.182;7.650;2023-05-16T12:05:10;0.95;;;0.70;;
12703;SDS011;6416;52.182;7.650;2023-05-16T12:07:36;1.25;;;0.90;;
12703;SDS011;6416;52.182;7.650;2023-05-16T12:12:31;2.65;;;0.70;;
12703;SDS011;6416;52.182;7.650;2023-05-16T12:14:56;4.03;;;1.30;;
12703;SDS011;6416;52.182;7.650;2023-05-16T12:17:22;3.25;;;0.88;;
12703;SDS011;6416;52.182;7.650;2023-05-16T12:19:48;4.18;;;1.00;;
12703;SDS011;6416;52.182;7.650;2023-05-16T12:22:16;1.30;;;0.75;;
12703;SDS011;6416;52.182;7.650;2023-05-16T12:24:43;2.40;;;0.75;;
12703;SDS011;6416;52.182;7.650;2023-05-16T12:27:08;2.40;;;0.70;;
12703;SDS011;6416;52.182;7.650;2023-05-16T12:29:34;2.38;;;0.80;;
12703;SDS011;6416;52.182;7.650;2023-05-16T12:31:59;3.72;;;1.08;;
12703;SDS011;6416;52.182;7.650;2023-05-16T12:34:27;1.08;;;0.68;;
12703;SDS011;6416;52.182;7.650;2023-05-16T12:36:53;1.52;;;0.70;;
12703;SDS011;6416;52.182;7.650;2023-05-16T12:39:19;1.63;;;0.85;;
12703;SDS011;6416;52.182;7.650;2023-05-16T12:41:45;2.13;;;0.90;;
12703;SDS011;6416;52.182;7.650;2023-05-16T12:44:18;3.30;;;0.75;;
12703;SDS011;6416;52.182;7.650;2023-05-16T12:46:44;1.65;;;0.68;;
12703;SDS011;6416;52.182;7.650;2023-05-16T12:49:11;3.53;;;0.85;;
12703;SDS011;6416;52.182;7.650;2023-05-16T12:51:37;4.82;;;0.90;;
12703;SDS011;6416;52.182;7.650;2023-05-16T12:54:07;2.67;;;0.98;;
12703;SDS011;6416;52.182;7.650;2023-05-16T12:56:34;1.88;;;0.80;;
12703;SDS011;6416;52.182;7.650;2023-05-16T12:58:59;1.52;;;0.73;;
12703;SDS011;6416;52.182;7.650;2023-05-16T13:01:25;1.40;;;0.77;;
12703;SDS011;6416;52.182;7.650;2023-05-16T13:03:50;3.58;;;0.93;;
12703;SDS011;6416;52.182;7.650;2023-05-16T13:06:16;1.60;;;0.90;;
12703;SDS011;6416;52.182;7.650;2023-05-16T13:08:41;0.98;;;0.70;;
12703;SDS011;6416;52.182;7.650;2023-05-16T13:11:07;1.38;;;0.70;;
12703;SDS011;6416;52.182;7.650;2023-05-16T13:13:32;2.22;;;0.98;;
12703;SDS011;6416;52.182;7.650;2023-05-16T13:15:57;1.88;;;1.10;;
12703;SDS011;6416;52.182;7.650;2023-05-16T13:18:23;2.65;;;1.20;;
12703;SDS011;6416;52.182;7.650;2023-05-16T13:20:48;3.15;;;1.27;;
12703;SDS011;6416;52.182;7.650;2023-05-16T13:23:14;2.60;;;1.08;;
12703;SDS011;6416;52.182;7.650;2023-05-16T13:25:39;2.80;;;1.10;;
12703;SDS011;6416;52.182;7.650;2023-05-16T13:28:05;1.58;;;0.80;;
12703;SDS011;6416;52.182;7.650;2023-05-16T13:30:30;4.32;;;1.13;;
12703;SDS011;6416;52.182;7.650;2023-05-16T13:32:56;1.77;;;1.05;;
12703;SDS011;6416;52.182;7.650;2023-05-16T13:35:21;1.15;;;0.95;;
12703;SDS011;6416;52.182;7.650;2023-05-16T13:37:47;4.53;;;1.40;;
12703;SDS011;6416;52.182;7.650;2023-05-16T13:40:12;2.90;;;1.23;;
12703;SDS011;6416;52.182;7.650;2023-05-16T13:42:38;3.53;;;0.90;;
12703;SDS011;6416;52.182;7.650;2023-05-16T13:45:03;2.85;;;1.00;;
12703;SDS011;6416;52.182;7.650;2023-05-16T13:47:30;1.88;;;0.80;;
12703;SDS011;6416;52.182;7.650;2023-05-16T13:49:55;2.10;;;0.98;;
12703;SDS011;6416;52.182;7.650;2023-05-16T13:52:21;2.58;;;1.17;;
12703;SDS011;6416;52.182;7.650;2023-05-16T13:54:49;2.78;;;1.13;;
12703;SDS011;6416;52.182;7.650;2023-05-16T13:57:15;3.13;;;1.00;;
12703;SDS011;6416;52.182;7.650;2023-05-16T13:59:40;1.75;;;0.80;;
12703;SDS011;6416;52.182;7.650;2023-05-16T14:02:06;1.30;;;0.90;;
12703;SDS011;6416;52.182;7.650;2023-05-16T14:04:31;2.30;;;0.90;;
12703;SDS011;6416;52.182;7.650;2023-05-16T14:06:56;2.75;;;1.10;;
12703;SDS011;6416;52.182;7.650;2023-05-16T14:09:22;3.33;;;1.40;;
12703;SDS011;6416;52.182;7.650;2023-05-16T14:11:47;2.33;;;0.93;;
12703;SDS011;6416;52.182;7.650;2023-05-16T14:14:13;2.47;;;1.10;;
12703;SDS011;6416;52.182;7.650;2023-05-16T14:16:38;5.38;;;1.30;;
12703;SDS011;6416;52.182;7.650;2023-05-16T14:19:04;2.10;;;0.90;;
12703;SDS011;6416;52.182;7.650;2023-05-16T14:21:29;1.77;;;1.00;;
12703;SDS011;6416;52.182;7.650;2023-05-16T14:23:55;4.20;;;1.33;;
12703;SDS011;6416;52.182;7.650;2023-05-16T14:26:20;2.03;;;1.52;;
12703;SDS011;6416;52.182;7.650;2023-05-16T14:28:45;2.55;;;1.40;;
12703;SDS011;6416;52.182;7.650;2023-05-16T14:31:11;2.88;;;1.40;;
12703;SDS011;6416;52.182;7.650;2023-05-16T14:33:36;2.80;;;1.48;;
12703;SDS011;6416;52.182;7.650;2023-05-16T14:36:02;1.55;;;1.27;;
12703;SDS011;6416;52.182;7.650;2023-05-16T14:38:27;3.40;;;1.77;;
12703;SDS011;6416;52.182;7.650;2023-05-16T14:40:53;3.90;;;1.27;;
12703;SDS011;6416;52.182;7.650;2023-05-16T14:43:18;2.75;;;1.38;;
12703;SDS011;6416;52.182;7.650;2023-05-16T14:45:44;3.63;;;1.38;;
12703;SDS011;6416;52.182;7.650;2023-05-16T14:48:09;2.40;;;1.40;;
12703;SDS011;6416;52.182;7.650;2023-05-16T14:50:35;3.00;;;1.35;;
12703;SDS011;6416;52.182;7.650;2023-05-16T14:53:00;2.33;;;1.40;;
12703;SDS011;6416;52.182;7.650;2023-05-16T14:55:26;1.77;;;1.27;;
12703;SDS011;6416;52.182;7.650;2023-05-16T14:57:51;2.05;;;1.30;;
12703;SDS011;6416;52.182;7.650;2023-05-16T15:00:17;2.38;;;1.40;;
12703;SDS011;6416;52.182;7.650;2023-05-16T15:02:47;4.25;;;1.50;;
12703;SDS011;6416;52.182;7.650;2023-05-16T15:05:13;3.40;;;1.60;;
12703;SDS011;6416;52.182;7.650;2023-05-16T15:07:38;2.55;;;1.48;;
12703;SDS011;6416;52.182;7.650;2023-05-16T15:10:04;2.75;;;1.40;;
12703;SDS011;6416;52.182;7.650;2023-05-16T15:12:30;3.40;;;1.45;;
12703;SDS011;6416;52.182;7.650;2023-05-16T15:14:55;2.47;;;1.45;;
12703;SDS011;6416;52.182;7.650;2023-05-16T15:17:21;1.42;;;1.30;;